sensor_id;sensor_type;location;lat;lon;timestamp;temperature;humidity
41290;DHT22;36117;46.680;11.154;2022-09-19T00:01:43;17.70;54.70
41290;DHT22;36117;46.680;11.154;2022-09-19T00:04:16;17.40;56.00
41290;DHT22;36117;46.680;11.154;2022-09-19T00:06:43;17.40;55.50
41290;DHT22;36117;46.680;11.154;2022-09-19T00:09:12;17.30;55.40
41290;DHT22;36117;46.680;11.154;2022-09-19T00:11:40;17.10;55.90
41290;DHT22;36117;46.680;11.154;2022-09-19T00:14:08;17.50;55.60
41290;DHT22;36117;46.680;11.154;2022-09-19T00:16:37;17.70;54.70
41290;DHT22;36117;46.680;11.154;2022-09-19T00:19:10;17.70;54.00
41290;DHT22;36117;46.680;11.154;2022-09-19T00:21:39;17.60;55.00
41290;DHT22;36117;46.680;11.154;2022-09-19T00:24:06;17.40;55.90
41290;DHT22;36117;46.680;11.154;2022-09-19T00:26:51;17.50;55.30
41290;DHT22;36117;46.680;11.154;2022-09-19T00:29:18;17.30;55.80
41290;DHT22;36117;46.680;11.154;2022-09-19T00:31:45;17.40;55.60
41290;DHT22;36117;46.680;11.154;2022-09-19T00:34:12;17.60;55.50
41290;DHT22;36117;46.680;11.154;2022-09-19T00:36:39;17.40;55.70
41290;DHT22;36117;46.680;11.154;2022-09-19T00:39:06;17.30;55.20
41290;DHT22;36117;46.680;11.154;2022-09-19T00:41:34;17.20;53.90
41290;DHT22;36117;46.680;11.154;2022-09-19T00:46:58;17.00;56.50
41290;DHT22;36117;46.680;11.154;2022-09-19T00:49:27;17.20;56.20
41290;DHT22;36117;46.680;11.154;2022-09-19T00:51:56;16.90;57.10
41290;DHT22;36117;46.680;11.154;2022-09-19T00:54:31;16.80;57.00
41290;DHT22;36117;46.680;11.154;2022-09-19T00:56:59;16.70;57.10
41290;DHT22;36117;46.680;11.154;2022-09-19T00:59:27;17.00;56.80
41290;DHT22;36117;46.680;11.154;2022-09-19T01:01:56;17.30;56.50
41290;DHT22;36117;46.680;11.154;2022-09-19T01:04:24;17.40;55.90
41290;DHT22;36117;46.680;11.154;2022-09-19T01:18:08;17.20;56.90
41290;DHT22;36117;46.680;11.154;2022-09-19T01:20:56;17.40;56.50
41290;DHT22;36117;46.680;11.154;2022-09-19T01:23:50;17.30;55.40
41290;DHT22;36117;46.680;11.154;2022-09-19T01:27:18;17.20;55.70
41290;DHT22;36117;46.680;11.154;2022-09-19T01:29:48;17.20;55.50
41290;DHT22;36117;46.680;11.154;2022-09-19T01:32:19;17.30;55.80
41290;DHT22;36117;46.680;11.154;2022-09-19T01:34:53;16.80;57.00
41290;DHT22;36117;46.680;11.154;2022-09-19T01:37:33;16.80;58.10
41290;DHT22;36117;46.680;11.154;2022-09-19T01:40:02;16.80;57.90
41290;DHT22;36117;46.680;11.154;2022-09-19T01:42:29;17.00;57.90
41290;DHT22;36117;46.680;11.154;2022-09-19T01:44:55;16.90;57.10
41290;DHT22;36117;46.680;11.154;2022-09-19T01:47:43;17.10;57.10
41290;DHT22;36117;46.680;11.154;2022-09-19T01:50:34;17.40;56.70
41290;DHT22;36117;46.680;11.154;2022-09-19T01:55:42;17.30;56.10
41290;DHT22;36117;46.680;11.154;2022-09-19T02:06:57;17.50;56.80
41290;DHT22;36117;46.680;11.154;2022-09-19T02:12:20;17.40;57.70
41290;DHT22;36117;46.680;11.154;2022-09-19T02:14:51;17.10;58.40
41290;DHT22;36117;46.680;11.154;2022-09-19T02:17:32;17.20;58.00
41290;DHT22;36117;46.680;11.154;2022-09-19T02:20:05;17.20;57.40
41290;DHT22;36117;46.680;11.154;2022-09-19T02:22:44;17.30;56.70
41290;DHT22;36117;46.680;11.154;2022-09-19T02:25:17;17.40;56.60
41290;DHT22;36117;46.680;11.154;2022-09-19T02:27:54;17.50;55.50
41290;DHT22;36117;46.680;11.154;2022-09-19T02:30:21;17.40;56.20
41290;DHT22;36117;46.680;11.154;2022-09-19T02:32:51;17.30;55.80
41290;DHT22;36117;46.680;11.154;2022-09-19T02:38:13;16.80;58.30
41290;DHT22;36117;46.680;11.154;2022-09-19T02:41:04;16.80;58.50
41290;DHT22;36117;46.680;11.154;2022-09-19T02:43:44;16.90;58.30
41290;DHT22;36117;46.680;11.154;2022-09-19T02:46:39;16.90;58.30
41290;DHT22;36117;46.680;11.154;2022-09-19T02:49:14;16.70;58.50
41290;DHT22;36117;46.680;11.154;2022-09-19T02:51:49;17.00;58.30
41290;DHT22;36117;46.680;11.154;2022-09-19T02:54:22;17.30;57.40
41290;DHT22;36117;46.680;11.154;2022-09-19T02:56:50;16.90;57.90
41290;DHT22;36117;46.680;11.154;2022-09-19T02:59:23;16.80;58.50
41290;DHT22;36117;46.680;11.154;2022-09-19T03:02:19;16.90;58.60
41290;DHT22;36117;46.680;11.154;2022-09-19T03:04:47;16.80;58.70
41290;DHT22;36117;46.680;11.154;2022-09-19T03:07:30;16.90;58.30
41290;DHT22;36117;46.680;11.154;2022-09-19T03:10:11;17.20;58.40
41290;DHT22;36117;46.680;11.154;2022-09-19T03:15:06;17.30;57.90
41290;DHT22;36117;46.680;11.154;2022-09-19T03:17:40;17.50;58.10
41290;DHT22;36117;46.680;11.154;2022-09-19T03:20:07;17.60;57.70
41290;DHT22;36117;46.680;11.154;2022-09-19T03:22:38;17.10;57.70
41290;DHT22;36117;46.680;11.154;2022-09-19T03:25:06;16.90;58.80
41290;DHT22;36117;46.680;11.154;2022-09-19T03:27:32;16.90;59.20
41290;DHT22;36117;46.680;11.154;2022-09-19T03:29:58;17.10;59.40
41290;DHT22;36117;46.680;11.154;2022-09-19T03:32:24;16.90;60.00
41290;DHT22;36117;46.680;11.154;2022-09-19T03:34:52;16.80;60.10
41290;DHT22;36117;46.680;11.154;2022-09-19T03:37:21;16.60;59.70
41290;DHT22;36117;46.680;11.154;2022-09-19T03:39:48;16.40;61.40
41290;DHT22;36117;46.680;11.154;2022-09-19T03:42:14;16.30;62.00
41290;DHT22;36117;46.680;11.154;2022-09-19T03:44:40;16.50;61.60
41290;DHT22;36117;46.680;11.154;2022-09-19T03:47:06;16.60;61.30
41290;DHT22;36117;46.680;11.154;2022-09-19T03:49:35;16.60;60.80
41290;DHT22;36117;46.680;11.154;2022-09-19T03:52:01;16.20;61.70
41290;DHT22;36117;46.680;11.154;2022-09-19T03:54:27;16.20;62.40
41290;DHT22;36117;46.680;11.154;2022-09-19T03:56:53;16.10;62.80
41290;DHT22;36117;46.680;11.154;2022-09-19T03:59:19;16.50;61.90
41290;DHT22;36117;46.680;11.154;2022-09-19T04:01:46;16.70;61.30
41290;DHT22;36117;46.680;11.154;2022-09-19T04:04:12;16.60;61.40
41290;DHT22;36117;46.680;11.154;2022-09-19T04:06:38;16.80;61.80
41290;DHT22;36117;46.680;11.154;2022-09-19T04:09:06;16.80;60.80
41290;DHT22;36117;46.680;11.154;2022-09-19T04:11:32;16.40;61.10
41290;DHT22;36117;46.680;11.154;2022-09-19T04:13:57;16.10;62.00
41290;DHT22;36117;46.680;11.154;2022-09-19T04:16:24;16.30;62.90
41290;DHT22;36117;46.680;11.154;2022-09-19T04:18:50;16.30;63.20
41290;DHT22;36117;46.680;11.154;2022-09-19T04:21:17;16.50;62.60
41290;DHT22;36117;46.680;11.154;2022-09-19T04:23:43;16.60;61.60
41290;DHT22;36117;46.680;11.154;2022-09-19T04:26:10;16.70;61.10
41290;DHT22;36117;46.680;11.154;2022-09-19T04:28:37;16.80;60.00
41290;DHT22;36117;46.680;11.154;2022-09-19T04:31:06;17.00;59.40
41290;DHT22;36117;46.680;11.154;2022-09-19T04:33:34;16.50;60.70
41290;DHT22;36117;46.680;11.154;2022-09-19T04:36:00;16.10;62.10
41290;DHT22;36117;46.680;11.154;2022-09-19T04:38:26;16.20;62.40
41290;DHT22;36117;46.680;11.154;2022-09-19T04:40:54;15.90;62.40
41290;DHT22;36117;46.680;11.154;2022-09-19T04:43:24;16.30;62.80
41290;DHT22;36117;46.680;11.154;2022-09-19T04:45:53;16.00;62.40
41290;DHT22;36117;46.680;11.154;2022-09-19T04:48:20;16.00;62.90
41290;DHT22;36117;46.680;11.154;2022-09-19T04:50:48;16.50;61.90
41290;DHT22;36117;46.680;11.154;2022-09-19T04:53:22;16.60;61.40
41290;DHT22;36117;46.680;11.154;2022-09-19T04:55:53;16.90;60.10
41290;DHT22;36117;46.680;11.154;2022-09-19T04:58:20;16.70;59.30
41290;DHT22;36117;46.680;11.154;2022-09-19T05:00:55;16.80;59.40
41290;DHT22;36117;46.680;11.154;2022-09-19T05:03:22;16.50;62.60
41290;DHT22;36117;46.680;11.154;2022-09-19T05:05:50;16.30;62.90
41290;DHT22;36117;46.680;11.154;2022-09-19T05:08:19;16.20;62.90
41290;DHT22;36117;46.680;11.154;2022-09-19T05:10:50;15.90;62.60
41290;DHT22;36117;46.680;11.154;2022-09-19T05:13:17;15.90;62.80
41290;DHT22;36117;46.680;11.154;2022-09-19T05:15:45;16.10;63.90
41290;DHT22;36117;46.680;11.154;2022-09-19T05:18:11;16.10;63.50
41290;DHT22;36117;46.680;11.154;2022-09-19T05:20:38;16.60;62.50
41290;DHT22;36117;46.680;11.154;2022-09-19T05:23:04;16.80;61.00
41290;DHT22;36117;46.680;11.154;2022-09-19T05:25:36;16.10;62.10
41290;DHT22;36117;46.680;11.154;2022-09-19T05:28:03;16.20;63.00
41290;DHT22;36117;46.680;11.154;2022-09-19T05:30:33;16.30;62.30
41290;DHT22;36117;46.680;11.154;2022-09-19T05:33:00;16.10;62.20
41290;DHT22;36117;46.680;11.154;2022-09-19T05:35:29;16.60;62.60
41290;DHT22;36117;46.680;11.154;2022-09-19T05:37:55;16.70;61.90
41290;DHT22;36117;46.680;11.154;2022-09-19T05:40:23;16.80;61.40
41290;DHT22;36117;46.680;11.154;2022-09-19T05:42:48;16.10;62.70
41290;DHT22;36117;46.680;11.154;2022-09-19T05:45:17;16.30;63.20
41290;DHT22;36117;46.680;11.154;2022-09-19T05:47:43;16.70;62.60
41290;DHT22;36117;46.680;11.154;2022-09-19T05:50:13;16.60;62.90
41290;DHT22;36117;46.680;11.154;2022-09-19T05:52:41;16.40;62.70
41290;DHT22;36117;46.680;11.154;2022-09-19T05:55:27;16.40;62.80
41290;DHT22;36117;46.680;11.154;2022-09-19T05:57:56;16.80;62.10
41290;DHT22;36117;46.680;11.154;2022-09-19T06:00:24;16.90;61.50
41290;DHT22;36117;46.680;11.154;2022-09-19T06:02:55;16.60;62.00
41290;DHT22;36117;46.680;11.154;2022-09-19T06:05:23;16.10;62.20
41290;DHT22;36117;46.680;11.154;2022-09-19T06:07:49;16.40;61.60
41290;DHT22;36117;46.680;11.154;2022-09-19T06:10:18;16.60;60.20
41290;DHT22;36117;46.680;11.154;2022-09-19T06:12:44;16.80;60.10
41290;DHT22;36117;46.680;11.154;2022-09-19T06:15:11;16.90;59.70
41290;DHT22;36117;46.680;11.154;2022-09-19T06:17:37;16.80;59.40
41290;DHT22;36117;46.680;11.154;2022-09-19T06:20:04;16.90;59.70
41290;DHT22;36117;46.680;11.154;2022-09-19T06:22:30;16.90;59.50
41290;DHT22;36117;46.680;11.154;2022-09-19T06:24:56;17.00;58.30
41290;DHT22;36117;46.680;11.154;2022-09-19T06:27:22;16.80;56.50
41290;DHT22;36117;46.680;11.154;2022-09-19T06:29:48;17.10;54.10
41290;DHT22;36117;46.680;11.154;2022-09-19T06:32:14;18.20;49.70
41290;DHT22;36117;46.680;11.154;2022-09-19T06:34:40;18.50;51.60
41290;DHT22;36117;46.680;11.154;2022-09-19T06:37:06;18.20;52.90
41290;DHT22;36117;46.680;11.154;2022-09-19T06:39:32;18.50;53.20
41290;DHT22;36117;46.680;11.154;2022-09-19T06:41:57;18.50;53.70
41290;DHT22;36117;46.680;11.154;2022-09-19T06:44:23;18.90;51.90
41290;DHT22;36117;46.680;11.154;2022-09-19T06:46:50;19.40;48.70
41290;DHT22;36117;46.680;11.154;2022-09-19T06:49:16;20.40;47.00
41290;DHT22;36117;46.680;11.154;2022-09-19T06:51:42;20.90;44.90
41290;DHT22;36117;46.680;11.154;2022-09-19T06:54:08;21.20;40.20
41290;DHT22;36117;46.680;11.154;2022-09-19T06:56:34;21.20;39.30
41290;DHT22;36117;46.680;11.154;2022-09-19T06:59:00;21.50;37.50
41290;DHT22;36117;46.680;11.154;2022-09-19T07:01:25;22.20;37.20
41290;DHT22;36117;46.680;11.154;2022-09-19T07:03:51;22.60;35.90
41290;DHT22;36117;46.680;11.154;2022-09-19T07:06:17;22.90;35.90
41290;DHT22;36117;46.680;11.154;2022-09-19T07:08:43;22.70;36.40
41290;DHT22;36117;46.680;11.154;2022-09-19T07:11:09;22.90;35.70
41290;DHT22;36117;46.680;11.154;2022-09-19T07:13:35;23.10;34.70
41290;DHT22;36117;46.680;11.154;2022-09-19T07:16:01;23.60;34.30
41290;DHT22;36117;46.680;11.154;2022-09-19T07:18:30;24.00;34.00
41290;DHT22;36117;46.680;11.154;2022-09-19T07:20:58;24.70;33.20
41290;DHT22;36117;46.680;11.154;2022-09-19T07:23:25;25.10;32.30
41290;DHT22;36117;46.680;11.154;2022-09-19T07:25:53;25.40;31.70
41290;DHT22;36117;46.680;11.154;2022-09-19T07:28:21;25.70;31.00
41290;DHT22;36117;46.680;11.154;2022-09-19T07:30:47;25.20;31.90
41290;DHT22;36117;46.680;11.154;2022-09-19T07:33:17;25.70;32.00
41290;DHT22;36117;46.680;11.154;2022-09-19T07:35:45;26.10;31.40
41290;DHT22;36117;46.680;11.154;2022-09-19T07:38:14;26.30;31.20
41290;DHT22;36117;46.680;11.154;2022-09-19T07:40:40;26.20;30.70
41290;DHT22;36117;46.680;11.154;2022-09-19T07:43:07;26.80;30.30
41290;DHT22;36117;46.680;11.154;2022-09-19T07:45:35;27.40;30.00
41290;DHT22;36117;46.680;11.154;2022-09-19T07:48:03;28.10;29.20
41290;DHT22;36117;46.680;11.154;2022-09-19T07:50:30;27.40;28.10
41290;DHT22;36117;46.680;11.154;2022-09-19T07:53:00;26.50;29.40
41290;DHT22;36117;46.680;11.154;2022-09-19T07:55:27;26.60;29.80
41290;DHT22;36117;46.680;11.154;2022-09-19T07:57:55;27.50;29.80
41290;DHT22;36117;46.680;11.154;2022-09-19T08:00:22;28.20;28.60
41290;DHT22;36117;46.680;11.154;2022-09-19T08:02:59;28.10;28.60
41290;DHT22;36117;46.680;11.154;2022-09-19T08:05:26;29.40;28.30
41290;DHT22;36117;46.680;11.154;2022-09-19T08:07:53;30.70;27.10
41290;DHT22;36117;46.680;11.154;2022-09-19T08:10:19;30.00;26.50
41290;DHT22;36117;46.680;11.154;2022-09-19T08:12:47;30.20;26.90
41290;DHT22;36117;46.680;11.154;2022-09-19T08:15:15;30.10;27.40
41290;DHT22;36117;46.680;11.154;2022-09-19T08:17:58;31.20;27.00
41290;DHT22;36117;46.680;11.154;2022-09-19T08:20:29;31.90;26.10
41290;DHT22;36117;46.680;11.154;2022-09-19T08:22:59;32.30;26.30
41290;DHT22;36117;46.680;11.154;2022-09-19T08:25:26;32.90;26.00
41290;DHT22;36117;46.680;11.154;2022-09-19T08:27:53;32.80;25.40
41290;DHT22;36117;46.680;11.154;2022-09-19T08:30:22;31.80;23.80
41290;DHT22;36117;46.680;11.154;2022-09-19T08:32:49;31.50;25.50
41290;DHT22;36117;46.680;11.154;2022-09-19T08:35:16;31.90;25.50
41290;DHT22;36117;46.680;11.154;2022-09-19T08:37:43;31.80;25.70
41290;DHT22;36117;46.680;11.154;2022-09-19T08:45:58;31.70;25.80
41290;DHT22;36117;46.680;11.154;2022-09-19T08:51:34;32.40;25.00
41290;DHT22;36117;46.680;11.154;2022-09-19T08:56:47;33.10;24.30
41290;DHT22;36117;46.680;11.154;2022-09-19T08:59:15;33.50;23.60
41290;DHT22;36117;46.680;11.154;2022-09-19T09:01:42;34.40;23.30
41290;DHT22;36117;46.680;11.154;2022-09-19T09:04:25;35.30;23.60
41290;DHT22;36117;46.680;11.154;2022-09-19T09:10:05;32.10;25.50
41290;DHT22;36117;46.680;11.154;2022-09-19T09:23:42;35.70;22.30
41290;DHT22;36117;46.680;11.154;2022-09-19T09:26:23;35.90;22.10
41290;DHT22;36117;46.680;11.154;2022-09-19T09:31:56;35.90;21.80
41290;DHT22;36117;46.680;11.154;2022-09-19T09:34:28;35.20;21.80
41290;DHT22;36117;46.680;11.154;2022-09-19T09:37:04;35.10;23.80
41290;DHT22;36117;46.680;11.154;2022-09-19T09:39:32;35.60;23.70
41290;DHT22;36117;46.680;11.154;2022-09-19T09:42:05;36.40;23.30
41290;DHT22;36117;46.680;11.154;2022-09-19T09:48:13;36.80;21.40
41290;DHT22;36117;46.680;11.154;2022-09-19T09:53:55;34.20;22.30
41290;DHT22;36117;46.680;11.154;2022-09-19T09:59:33;32.50;21.50
41290;DHT22;36117;46.680;11.154;2022-09-19T10:05:15;33.20;21.70
41290;DHT22;36117;46.680;11.154;2022-09-19T10:07:48;34.10;21.40
41290;DHT22;36117;46.680;11.154;2022-09-19T10:10:24;35.00;20.90
41290;DHT22;36117;46.680;11.154;2022-09-19T10:13:35;34.80;20.90
41290;DHT22;36117;46.680;11.154;2022-09-19T10:16:04;35.00;21.40
41290;DHT22;36117;46.680;11.154;2022-09-19T10:18:48;30.70;22.30
41290;DHT22;36117;46.680;11.154;2022-09-19T10:21:15;29.90;23.60
41290;DHT22;36117;46.680;11.154;2022-09-19T10:23:42;29.40;23.80
41290;DHT22;36117;46.680;11.154;2022-09-19T10:26:13;29.80;22.90
41290;DHT22;36117;46.680;11.154;2022-09-19T10:28:53;30.90;22.30
41290;DHT22;36117;46.680;11.154;2022-09-19T10:31:34;31.60;22.30
41290;DHT22;36117;46.680;11.154;2022-09-19T10:34:02;32.20;22.40
41290;DHT22;36117;46.680;11.154;2022-09-19T10:36:32;32.60;22.40
41290;DHT22;36117;46.680;11.154;2022-09-19T10:39:06;32.80;22.40
41290;DHT22;36117;46.680;11.154;2022-09-19T10:41:34;33.30;21.50
41290;DHT22;36117;46.680;11.154;2022-09-19T10:44:05;32.70;21.10
41290;DHT22;36117;46.680;11.154;2022-09-19T10:46:41;32.10;21.80
41290;DHT22;36117;46.680;11.154;2022-09-19T10:49:21;32.00;21.10
41290;DHT22;36117;46.680;11.154;2022-09-19T10:51:50;31.20;21.80
41290;DHT22;36117;46.680;11.154;2022-09-19T10:54:33;30.30;22.40
41290;DHT22;36117;46.680;11.154;2022-09-19T10:57:03;29.60;23.20
41290;DHT22;36117;46.680;11.154;2022-09-19T10:59:39;26.60;24.20
41290;DHT22;36117;46.680;11.154;2022-09-19T11:04:36;27.40;24.00
41290;DHT22;36117;46.680;11.154;2022-09-19T11:07:13;26.90;24.00
41290;DHT22;36117;46.680;11.154;2022-09-19T11:09:42;27.10;24.20
41290;DHT22;36117;46.680;11.154;2022-09-19T11:12:14;27.00;24.00
41290;DHT22;36117;46.680;11.154;2022-09-19T11:14:43;27.20;24.20
41290;DHT22;36117;46.680;11.154;2022-09-19T11:26:19;27.20;24.10
41290;DHT22;36117;46.680;11.154;2022-09-19T11:29:15;27.80;23.60
41290;DHT22;36117;46.680;11.154;2022-09-19T11:40:22;28.30;22.90
41290;DHT22;36117;46.680;11.154;2022-09-19T11:45:37;27.60;22.60
41290;DHT22;36117;46.680;11.154;2022-09-19T11:51:34;25.00;24.70
41290;DHT22;36117;46.680;11.154;2022-09-19T11:54:29;23.70;25.00
41290;DHT22;36117;46.680;11.154;2022-09-19T11:57:37;24.30;25.60
41290;DHT22;36117;46.680;11.154;2022-09-19T12:00:18;25.30;24.10
41290;DHT22;36117;46.680;11.154;2022-09-19T12:06:07;26.10;23.70
41290;DHT22;36117;46.680;11.154;2022-09-19T12:11:28;26.00;23.40
41290;DHT22;36117;46.680;11.154;2022-09-19T12:14:00;24.80;23.40
41290;DHT22;36117;46.680;11.154;2022-09-19T12:16:44;25.20;23.80
41290;DHT22;36117;46.680;11.154;2022-09-19T12:19:38;26.00;23.90
41290;DHT22;36117;46.680;11.154;2022-09-19T12:22:15;26.40;23.40
41290;DHT22;36117;46.680;11.154;2022-09-19T12:24:55;26.40;23.20
41290;DHT22;36117;46.680;11.154;2022-09-19T12:27:42;27.10;23.40
41290;DHT22;36117;46.680;11.154;2022-09-19T12:32:59;28.30;22.30
41290;DHT22;36117;46.680;11.154;2022-09-19T12:35:41;28.70;22.40
41290;DHT22;36117;46.680;11.154;2022-09-19T12:38:19;28.40;21.60
41290;DHT22;36117;46.680;11.154;2022-09-19T12:41:13;27.50;21.90
41290;DHT22;36117;46.680;11.154;2022-09-19T12:43:59;26.40;22.30
41290;DHT22;36117;46.680;11.154;2022-09-19T12:46:43;25.80;23.80
41290;DHT22;36117;46.680;11.154;2022-09-19T12:49:42;26.00;23.60
41290;DHT22;36117;46.680;11.154;2022-09-19T12:54:46;25.30;23.60
41290;DHT22;36117;46.680;11.154;2022-09-19T12:57:21;24.80;23.50
41290;DHT22;36117;46.680;11.154;2022-09-19T12:59:52;24.40;23.80
41290;DHT22;36117;46.680;11.154;2022-09-19T13:02:44;24.60;24.10
41290;DHT22;36117;46.680;11.154;2022-09-19T13:08:17;24.30;24.70
41290;DHT22;36117;46.680;11.154;2022-09-19T13:11:07;24.50;24.70
41290;DHT22;36117;46.680;11.154;2022-09-19T13:14:00;24.20;23.70
41290;DHT22;36117;46.680;11.154;2022-09-19T13:16:35;24.00;23.90
41290;DHT22;36117;46.680;11.154;2022-09-19T13:19:01;24.10;24.10
41290;DHT22;36117;46.680;11.154;2022-09-19T13:21:47;23.90;24.20
41290;DHT22;36117;46.680;11.154;2022-09-19T13:27:07;23.80;24.50
41290;DHT22;36117;46.680;11.154;2022-09-19T13:35:20;24.00;24.60
41290;DHT22;36117;46.680;11.154;2022-09-19T13:37:50;24.10;24.00
41290;DHT22;36117;46.680;11.154;2022-09-19T13:51:29;24.00;24.10
41290;DHT22;36117;46.680;11.154;2022-09-19T13:59:31;24.00;24.90
41290;DHT22;36117;46.680;11.154;2022-09-19T14:02:19;24.20;24.90
41290;DHT22;36117;46.680;11.154;2022-09-19T14:05:00;23.50;24.80
41290;DHT22;36117;46.680;11.154;2022-09-19T14:07:40;23.50;25.20
41290;DHT22;36117;46.680;11.154;2022-09-19T14:23:40;24.20;24.10
41290;DHT22;36117;46.680;11.154;2022-09-19T14:29:07;24.00;24.50
41290;DHT22;36117;46.680;11.154;2022-09-19T14:48:55;24.80;24.20
41290;DHT22;36117;46.680;11.154;2022-09-19T14:54:12;25.40;23.70
41290;DHT22;36117;46.680;11.154;2022-09-19T14:56:40;25.70;23.70
41290;DHT22;36117;46.680;11.154;2022-09-19T14:59:17;25.70;24.00
41290;DHT22;36117;46.680;11.154;2022-09-19T15:01:48;25.70;23.90
41290;DHT22;36117;46.680;11.154;2022-09-19T15:04:21;25.40;23.90
41290;DHT22;36117;46.680;11.154;2022-09-19T15:06:51;25.30;24.30
41290;DHT22;36117;46.680;11.154;2022-09-19T15:12:01;24.70;24.70
41290;DHT22;36117;46.680;11.154;2022-09-19T15:14:30;25.30;25.00
41290;DHT22;36117;46.680;11.154;2022-09-19T15:19:44;25.80;23.90
41290;DHT22;36117;46.680;11.154;2022-09-19T15:22:44;26.00;23.80
41290;DHT22;36117;46.680;11.154;2022-09-19T15:25:23;25.80;23.60
41290;DHT22;36117;46.680;11.154;2022-09-19T15:27:58;25.60;24.10
41290;DHT22;36117;46.680;11.154;2022-09-19T15:30:30;25.60;23.80
41290;DHT22;36117;46.680;11.154;2022-09-19T15:33:09;25.90;24.20
41290;DHT22;36117;46.680;11.154;2022-09-19T15:35:43;25.70;23.70
41290;DHT22;36117;46.680;11.154;2022-09-19T15:38:24;25.80;24.00
41290;DHT22;36117;46.680;11.154;2022-09-19T15:40:51;25.70;23.70
41290;DHT22;36117;46.680;11.154;2022-09-19T15:43:18;25.50;23.90
41290;DHT22;36117;46.680;11.154;2022-09-19T15:45:46;25.40;24.10
41290;DHT22;36117;46.680;11.154;2022-09-19T15:50:47;25.50;24.40
41290;DHT22;36117;46.680;11.154;2022-09-19T15:56:17;25.50;24.10
41290;DHT22;36117;46.680;11.154;2022-09-19T15:58:53;25.30;24.10
41290;DHT22;36117;46.680;11.154;2022-09-19T16:01:25;25.00;24.10
41290;DHT22;36117;46.680;11.154;2022-09-19T16:06:49;25.00;24.50
41290;DHT22;36117;46.680;11.154;2022-09-19T16:09:43;25.00;24.10
41290;DHT22;36117;46.680;11.154;2022-09-19T16:15:03;24.70;24.60
41290;DHT22;36117;46.680;11.154;2022-09-19T16:23:12;23.50;25.20
41290;DHT22;36117;46.680;11.154;2022-09-19T16:28:37;22.80;26.30
41290;DHT22;36117;46.680;11.154;2022-09-19T16:34:08;22.40;26.90
41290;DHT22;36117;46.680;11.154;2022-09-19T16:36:46;22.40;26.90
41290;DHT22;36117;46.680;11.154;2022-09-19T16:39:17;22.20;26.90
41290;DHT22;36117;46.680;11.154;2022-09-19T16:49:27;22.50;26.90
41290;DHT22;36117;46.680;11.154;2022-09-19T16:51:54;22.40;27.00
41290;DHT22;36117;46.680;11.154;2022-09-19T16:54:21;22.20;27.20
41290;DHT22;36117;46.680;11.154;2022-09-19T16:56:48;22.30;27.80
41290;DHT22;36117;46.680;11.154;2022-09-19T16:59:17;22.20;27.70
41290;DHT22;36117;46.680;11.154;2022-09-19T17:01:45;22.20;27.60
41290;DHT22;36117;46.680;11.154;2022-09-19T17:04:13;21.80;27.80
41290;DHT22;36117;46.680;11.154;2022-09-19T17:06:42;21.60;28.20
41290;DHT22;36117;46.680;11.154;2022-09-19T17:09:08;21.50;28.60
41290;DHT22;36117;46.680;11.154;2022-09-19T17:11:34;21.40;28.80
41290;DHT22;36117;46.680;11.154;2022-09-19T17:13:59;21.20;28.90
41290;DHT22;36117;46.680;11.154;2022-09-19T17:16:25;21.20;29.00
41290;DHT22;36117;46.680;11.154;2022-09-19T17:18:51;21.00;29.30
41290;DHT22;36117;46.680;11.154;2022-09-19T17:21:17;20.80;29.70
41290;DHT22;36117;46.680;11.154;2022-09-19T17:23:46;20.70;30.00
41290;DHT22;36117;46.680;11.154;2022-09-19T17:26:12;20.80;29.90
41290;DHT22;36117;46.680;11.154;2022-09-19T17:28:38;20.70;30.00
41290;DHT22;36117;46.680;11.154;2022-09-19T17:31:07;20.60;30.00
41290;DHT22;36117;46.680;11.154;2022-09-19T17:33:36;20.50;30.40
41290;DHT22;36117;46.680;11.154;2022-09-19T17:36:02;20.20;30.20
41290;DHT22;36117;46.680;11.154;2022-09-19T17:38:30;20.40;30.50
41290;DHT22;36117;46.680;11.154;2022-09-19T17:40:56;20.40;30.60
41290;DHT22;36117;46.680;11.154;2022-09-19T17:43:23;20.40;30.30
41290;DHT22;36117;46.680;11.154;2022-09-19T17:45:56;20.30;31.00
41290;DHT22;36117;46.680;11.154;2022-09-19T17:48:26;20.30;31.30
41290;DHT22;36117;46.680;11.154;2022-09-19T17:50:52;20.10;31.10
41290;DHT22;36117;46.680;11.154;2022-09-19T17:53:18;20.00;31.30
41290;DHT22;36117;46.680;11.154;2022-09-19T17:55:44;20.00;31.40
41290;DHT22;36117;46.680;11.154;2022-09-19T17:58:10;20.10;31.60
41290;DHT22;36117;46.680;11.154;2022-09-19T18:00:37;20.00;31.60
41290;DHT22;36117;46.680;11.154;2022-09-19T18:03:03;20.00;32.00
41290;DHT22;36117;46.680;11.154;2022-09-19T18:05:57;19.90;32.30
41290;DHT22;36117;46.680;11.154;2022-09-19T18:08:28;19.80;32.50
41290;DHT22;36117;46.680;11.154;2022-09-19T18:11:02;19.70;32.40
41290;DHT22;36117;46.680;11.154;2022-09-19T18:13:29;19.50;33.00
41290;DHT22;36117;46.680;11.154;2022-09-19T18:16:05;19.50;32.80
41290;DHT22;36117;46.680;11.154;2022-09-19T18:18:31;19.60;32.90
41290;DHT22;36117;46.680;11.154;2022-09-19T18:20:57;19.50;32.90
41290;DHT22;36117;46.680;11.154;2022-09-19T18:23:28;19.30;33.30
41290;DHT22;36117;46.680;11.154;2022-09-19T18:25:59;19.30;33.50
41290;DHT22;36117;46.680;11.154;2022-09-19T18:28:30;19.30;32.90
41290;DHT22;36117;46.680;11.154;2022-09-19T18:30:56;19.60;33.00
41290;DHT22;36117;46.680;11.154;2022-09-19T18:33:23;19.40;33.30
41290;DHT22;36117;46.680;11.154;2022-09-19T18:35:50;19.30;33.80
41290;DHT22;36117;46.680;11.154;2022-09-19T18:38:17;19.30;34.20
41290;DHT22;36117;46.680;11.154;2022-09-19T18:40:43;19.20;33.80
41290;DHT22;36117;46.680;11.154;2022-09-19T18:43:11;19.20;33.50
41290;DHT22;36117;46.680;11.154;2022-09-19T18:45:37;19.20;33.90
41290;DHT22;36117;46.680;11.154;2022-09-19T18:48:03;19.20;34.30
41290;DHT22;36117;46.680;11.154;2022-09-19T18:50:29;19.10;34.50
41290;DHT22;36117;46.680;11.154;2022-09-19T18:52:55;19.00;34.90
41290;DHT22;36117;46.680;11.154;2022-09-19T18:55:21;18.90;34.90
41290;DHT22;36117;46.680;11.154;2022-09-19T18:57:46;18.80;35.20
41290;DHT22;36117;46.680;11.154;2022-09-19T19:00:13;18.80;35.20
41290;DHT22;36117;46.680;11.154;2022-09-19T19:02:39;18.90;35.10
41290;DHT22;36117;46.680;11.154;2022-09-19T19:05:05;18.90;35.50
41290;DHT22;36117;46.680;11.154;2022-09-19T19:07:32;18.80;35.20
41290;DHT22;36117;46.680;11.154;2022-09-19T19:09:58;18.60;35.50
41290;DHT22;36117;46.680;11.154;2022-09-19T19:12:24;18.70;35.90
41290;DHT22;36117;46.680;11.154;2022-09-19T19:14:50;18.70;35.80